sensor_id;sensor_type;location;lat;lon;timestamp;P1;durP1;ratioP1;P2;durP2;ratioP2
21539;SDS011;10931;52.164;5.518;2022-12-18T00:04:26;9.38;;;4.72;;
21539;SDS011;10931;52.164;5.518;2022-12-18T00:13:01;8.40;;;4.53;;
21539;SDS011;10931;52.164;5.518;2022-12-18T00:15:44;11.98;;;5.30;;
21539;SDS011;10931;52.164;5.518;2022-12-18T00:18:36;7.50;;;4.30;;
21539;SDS011;10931;52.164;5.518;2022-12-18T00:21:15;9.93;;;5.03;;
21539;SDS011;10931;52.164;5.518;2022-12-18T00:23:51;7.40;;;4.38;;
21539;SDS011;10931;52.164;5.518;2022-12-18T00:29:07;9.38;;;4.82;;
21539;SDS011;10931;52.164;5.518;2022-12-18T00:31:49;10.60;;;4.93;;
21539;SDS011;10931;52.164;5.518;2022-12-18T00:34:20;9.68;;;4.90;;
21539;SDS011;10931;52.164;5.518;2022-12-18T00:43:09;9.88;;;5.07;;
21539;SDS011;10931;52.164;5.518;2022-12-18T00:48:50;9.55;;;4.88;;
21539;SDS011;10931;52.164;5.518;2022-12-18T00:51:24;9.43;;;4.90;;
21539;SDS011;10931;52.164;5.518;2022-12-18T00:56:56;7.50;;;4.25;;
21539;SDS011;10931;52.164;5.518;2022-12-18T00:59:46;9.65;;;4.88;;
21539;SDS011;10931;52.164;5.518;2022-12-18T01:02:43;8.63;;;4.50;;
21539;SDS011;10931;52.164;5.518;2022-12-18T01:05:20;9.15;;;4.78;;
21539;SDS011;10931;52.164;5.518;2022-12-18T01:07:57;9.35;;;4.20;;
21539;SDS011;10931;52.164;5.518;2022-12-18T01:11:27;10.15;;;4.75;;
21539;SDS011;10931;52.164;5.518;2022-12-18T01:13:57;6.03;;;3.83;;
21539;SDS011;10931;52.164;5.518;2022-12-18T01:22:56;11.15;;;5.00;;
21539;SDS011;10931;52.164;5.518;2022-12-18T01:27:50;9.88;;;5.00;;
21539;SDS011;10931;52.164;5.518;2022-12-18T01:40:08;10.27;;;4.90;;
21539;SDS011;10931;52.164;5.518;2022-12-18T01:42:36;10.75;;;4.85;;
21539;SDS011;10931;52.164;5.518;2022-12-18T02:01:52;10.45;;;5.57;;
21539;SDS011;10931;52.164;5.518;2022-12-18T02:07:32;10.95;;;5.32;;
21539;SDS011;10931;52.164;5.518;2022-12-18T02:20:21;10.70;;;5.07;;
21539;SDS011;10931;52.164;5.518;2022-12-18T02:32:05;10.10;;;5.32;;
21539;SDS011;10931;52.164;5.518;2022-12-18T02:34:44;10.45;;;5.63;;
21539;SDS011;10931;52.164;5.518;2022-12-18T02:37:45;10.13;;;5.57;;
21539;SDS011;10931;52.164;5.518;2022-12-18T02:40:24;14.02;;;5.40;;
21539;SDS011;10931;52.164;5.518;2022-12-18T02:48:57;10.85;;;5.63;;
21539;SDS011;10931;52.164;5.518;2022-12-18T02:51:32;14.43;;;6.30;;
21539;SDS011;10931;52.164;5.518;2022-12-18T02:57:17;8.95;;;4.75;;
21539;SDS011;10931;52.164;5.518;2022-12-18T03:03:09;9.43;;;4.95;;
21539;SDS011;10931;52.164;5.518;2022-12-18T03:08:47;11.45;;;5.70;;
21539;SDS011;10931;52.164;5.518;2022-12-18T03:11:15;10.52;;;5.35;;
21539;SDS011;10931;52.164;5.518;2022-12-18T03:14:06;12.27;;;5.78;;
21539;SDS011;10931;52.164;5.518;2022-12-18T03:16:40;11.43;;;5.40;;
21539;SDS011;10931;52.164;5.518;2022-12-18T03:19:31;11.68;;;5.85;;
21539;SDS011;10931;52.164;5.518;2022-12-18T03:22:09;11.77;;;5.88;;
21539;SDS011;10931;52.164;5.518;2022-12-18T03:24:42;8.73;;;4.75;;
21539;SDS011;10931;52.164;5.518;2022-12-18T03:27:26;10.85;;;5.18;;
21539;SDS011;10931;52.164;5.518;2022-12-18T03:30:08;8.93;;;4.80;;
21539;SDS011;10931;52.164;5.518;2022-12-18T03:32:52;10.43;;;5.18;;
21539;SDS011;10931;52.164;5.518;2022-12-18T03:35:32;11.10;;;5.43;;
21539;SDS011;10931;52.164;5.518;2022-12-18T03:38:10;10.50;;;5.35;;
21539;SDS011;10931;52.164;5.518;2022-12-18T03:50:16;13.00;;;5.30;;
21539;SDS011;10931;52.164;5.518;2022-12-18T03:55:56;8.75;;;4.82;;
21539;SDS011;10931;52.164;5.518;2022-12-18T03:58:38;8.90;;;4.45;;
21539;SDS011;10931;52.164;5.518;2022-12-18T04:04:42;8.70;;;4.65;;
21539;SDS011;10931;52.164;5.518;2022-12-18T04:19:38;10.40;;;5.00;;
21539;SDS011;10931;52.164;5.518;2022-12-18T04:22:34;10.23;;;5.07;;
21539;SDS011;10931;52.164;5.518;2022-12-18T04:25:03;14.40;;;6.72;;
21539;SDS011;10931;52.164;5.518;2022-12-18T04:27:39;11.65;;;5.05;;
21539;SDS011;10931;52.164;5.518;2022-12-18T04:30:18;8.82;;;5.03;;
21539;SDS011;10931;52.164;5.518;2022-12-18T04:35:38;11.75;;;5.75;;
21539;SDS011;10931;52.164;5.518;2022-12-18T04:38:25;8.25;;;4.57;;
21539;SDS011;10931;52.164;5.518;2022-12-18T04:40:54;10.13;;;5.30;;
21539;SDS011;10931;52.164;5.518;2022-12-18T04:43:23;9.43;;;4.93;;
21539;SDS011;10931;52.164;5.518;2022-12-18T04:58:59;8.55;;;4.65;;
21539;SDS011;10931;52.164;5.518;2022-12-18T05:01:30;11.25;;;5.03;;
21539;SDS011;10931;52.164;5.518;2022-12-18T05:03:58;9.55;;;5.07;;
21539;SDS011;10931;52.164;5.518;2022-12-18T05:06:29;8.77;;;4.97;;
21539;SDS011;10931;52.164;5.518;2022-12-18T05:09:09;9.43;;;5.05;;
21539;SDS011;10931;52.164;5.518;2022-12-18T05:11:41;10.93;;;4.93;;
21539;SDS011;10931;52.164;5.518;2022-12-18T05:14:36;10.30;;;4.90;;
21539;SDS011;10931;52.164;5.518;2022-12-18T05:17:04;9.55;;;5.05;;
21539;SDS011;10931;52.164;5.518;2022-12-18T05:19:36;9.90;;;4.93;;
21539;SDS011;10931;52.164;5.518;2022-12-18T05:22:18;9.90;;;4.90;;
21539;SDS011;10931;52.164;5.518;2022-12-18T05:25:01;7.97;;;4.38;;
21539;SDS011;10931;52.164;5.518;2022-12-18T05:27:47;8.85;;;4.40;;
21539;SDS011;10931;52.164;5.518;2022-12-18T05:30:36;8.77;;;4.40;;
21539;SDS011;10931;52.164;5.518;2022-12-18T05:33:22;9.15;;;4.85;;
21539;SDS011;10931;52.164;5.518;2022-12-18T05:36:26;9.50;;;4.70;;
21539;SDS011;10931;52.164;5.518;2022-12-18T05:38:57;8.50;;;4.78;;
21539;SDS011;10931;52.164;5.518;2022-12-18T05:41:26;9.15;;;4.75;;
21539;SDS011;10931;52.164;5.518;2022-12-18T05:43:55;10.18;;;4.43;;
21539;SDS011;10931;52.164;5.518;2022-12-18T05:46:22;8.20;;;4.13;;
21539;SDS011;10931;52.164;5.518;2022-12-18T05:51:36;7.85;;;4.70;;
21539;SDS011;10931;52.164;5.518;2022-12-18T05:54:23;8.82;;;4.35;;
21539;SDS011;10931;52.164;5.518;2022-12-18T05:59:53;8.18;;;4.03;;
21539;SDS011;10931;52.164;5.518;2022-12-18T06:02:29;8.45;;;4.57;;
21539;SDS011;10931;52.164;5.518;2022-12-18T06:05:21;7.22;;;4.07;;
21539;SDS011;10931;52.164;5.518;2022-12-18T06:14:33;6.55;;;3.38;;
21539;SDS011;10931;52.164;5.518;2022-12-18T06:17:02;8.18;;;4.82;;
21539;SDS011;10931;52.164;5.518;2022-12-18T06:19:40;7.90;;;3.78;;
21539;SDS011;10931;52.164;5.518;2022-12-18T06:22:11;7.82;;;4.43;;
21539;SDS011;10931;52.164;5.518;2022-12-18T06:24:59;6.32;;;3.78;;
21539;SDS011;10931;52.164;5.518;2022-12-18T06:27:39;7.65;;;4.05;;
21539;SDS011;10931;52.164;5.518;2022-12-18T06:30:12;6.43;;;3.65;;
21539;SDS011;10931;52.164;5.518;2022-12-18T06:33:02;8.50;;;4.15;;
21539;SDS011;10931;52.164;5.518;2022-12-18T06:35:32;8.00;;;4.00;;
21539;SDS011;10931;52.164;5.518;2022-12-18T06:38:21;6.25;;;3.88;;
21539;SDS011;10931;52.164;5.518;2022-12-18T06:40:52;5.90;;;3.50;;
21539;SDS011;10931;52.164;5.518;2022-12-18T06:43:37;7.38;;;3.88;;
21539;SDS011;10931;52.164;5.518;2022-12-18T06:46:27;7.82;;;4.30;;
21539;SDS011;10931;52.164;5.518;2022-12-18T06:48:59;7.13;;;3.88;;
21539;SDS011;10931;52.164;5.518;2022-12-18T06:54:59;7.22;;;3.65;;
21539;SDS011;10931;52.164;5.518;2022-12-18T06:57:45;6.30;;;3.65;;
21539;SDS011;10931;52.164;5.518;2022-12-18T07:00:24;7.20;;;3.80;;
21539;SDS011;10931;52.164;5.518;2022-12-18T07:03:05;6.80;;;3.53;;
21539;SDS011;10931;52.164;5.518;2022-12-18T07:08:55;6.50;;;3.60;;
21539;SDS011;10931;52.164;5.518;2022-12-18T07:14:28;6.72;;;3.45;;
21539;SDS011;10931;52.164;5.518;2022-12-18T07:17:16;7.47;;;3.92;;
21539;SDS011;10931;52.164;5.518;2022-12-18T07:25:37;7.22;;;3.58;;
21539;SDS011;10931;52.164;5.518;2022-12-18T07:28:26;5.50;;;3.33;;
21539;SDS011;10931;52.164;5.518;2022-12-18T07:33:34;7.65;;;3.72;;
21539;SDS011;10931;52.164;5.518;2022-12-18T07:36:12;5.13;;;3.40;;
21539;SDS011;10931;52.164;5.518;2022-12-18T07:38:38;7.13;;;4.13;;
21539;SDS011;10931;52.164;5.518;2022-12-18T07:41:21;5.45;;;3.05;;
21539;SDS011;10931;52.164;5.518;2022-12-18T07:43:57;5.80;;;3.38;;
21539;SDS011;10931;52.164;5.518;2022-12-18T07:46:33;6.32;;;3.28;;
21539;SDS011;10931;52.164;5.518;2022-12-18T07:49:42;5.85;;;2.90;;
21539;SDS011;10931;52.164;5.518;2022-12-18T07:52:26;6.97;;;3.35;;
21539;SDS011;10931;52.164;5.518;2022-12-18T07:55:13;5.25;;;2.75;;
21539;SDS011;10931;52.164;5.518;2022-12-18T07:58:10;5.57;;;3.17;;
21539;SDS011;10931;52.164;5.518;2022-12-18T08:00:36;6.30;;;3.00;;
21539;SDS011;10931;52.164;5.518;2022-12-18T08:03:02;5.97;;;3.03;;
21539;SDS011;10931;52.164;5.518;2022-12-18T08:05:27;4.78;;;3.10;;
21539;SDS011;10931;52.164;5.518;2022-12-18T08:07:55;5.82;;;3.63;;
21539;SDS011;10931;52.164;5.518;2022-12-18T08:13:30;5.40;;;2.88;;
21539;SDS011;10931;52.164;5.518;2022-12-18T08:16:05;5.63;;;2.92;;
21539;SDS011;10931;52.164;5.518;2022-12-18T08:18:33;9.60;;;3.78;;
21539;SDS011;10931;52.164;5.518;2022-12-18T08:23:59;4.95;;;3.17;;
21539;SDS011;10931;52.164;5.518;2022-12-18T08:26:39;4.53;;;2.70;;
21539;SDS011;10931;52.164;5.518;2022-12-18T08:32:19;5.97;;;3.35;;
21539;SDS011;10931;52.164;5.518;2022-12-18T08:35:07;8.35;;;2.97;;
21539;SDS011;10931;52.164;5.518;2022-12-18T08:37:48;5.25;;;2.90;;
21539;SDS011;10931;52.164;5.518;2022-12-18T08:42:47;5.78;;;3.05;;
21539;SDS011;10931;52.164;5.518;2022-12-18T08:46:00;5.60;;;3.00;;
21539;SDS011;10931;52.164;5.518;2022-12-18T08:48:33;4.55;;;2.80;;
21539;SDS011;10931;52.164;5.518;2022-12-18T08:51:04;4.50;;;2.60;;
21539;SDS011;10931;52.164;5.518;2022-12-18T08:53:35;5.60;;;2.90;;
21539;SDS011;10931;52.164;5.518;2022-12-18T08:56:05;4.65;;;2.72;;
21539;SDS011;10931;52.164;5.518;2022-12-18T08:58:56;4.65;;;2.75;;
21539;SDS011;10931;52.164;5.518;2022-12-18T09:01:45;5.10;;;2.95;;
21539;SDS011;10931;52.164;5.518;2022-12-18T09:04:23;4.20;;;2.22;;
21539;SDS011;10931;52.164;5.518;2022-12-18T09:07:09;4.82;;;2.60;;
21539;SDS011;10931;52.164;5.518;2022-12-18T09:09:40;3.88;;;2.70;;
21539;SDS011;10931;52.164;5.518;2022-12-18T09:15:51;4.10;;;2.45;;
21539;SDS011;10931;52.164;5.518;2022-12-18T10:36:41;4.47;;;2.28;;
21539;SDS011;10931;52.164;5.518;2022-12-18T10:45:01;4.10;;;1.98;;
21539;SDS011;10931;52.164;5.518;2022-12-18T10:47:35;3.78;;;1.88;;
21539;SDS011;10931;52.164;5.518;2022-12-18T10:50:11;3.58;;;2.10;;
21539;SDS011;10931;52.164;5.518;2022-12-18T10:52:57;4.55;;;2.17;;
21539;SDS011;10931;52.164;5.518;2022-12-18T10:55:33;2.35;;;1.67;;
21539;SDS011;10931;52.164;5.518;2022-12-18T11:06:19;2.38;;;1.67;;
21539;SDS011;10931;52.164;5.518;2022-12-18T11:09:05;3.00;;;1.70;;
21539;SDS011;10931;52.164;5.518;2022-12-18T11:11:48;2.75;;;1.60;;
21539;SDS011;10931;52.164;5.518;2022-12-18T11:14:26;2.97;;;1.73;;
21539;SDS011;10931;52.164;5.518;2022-12-18T11:16:54;4.78;;;1.60;;
21539;SDS011;10931;52.164;5.518;2022-12-18T11:22:25;4.00;;;2.15;;
21539;SDS011;10931;52.164;5.518;2022-12-18T11:25:02;4.00;;;2.13;;
21539;SDS011;10931;52.164;5.518;2022-12-18T11:30:31;3.55;;;1.75;;
21539;SDS011;10931;52.164;5.518;2022-12-18T11:35:49;4.72;;;2.20;;
21539;SDS011;10931;52.164;5.518;2022-12-18T11:38:28;3.42;;;2.10;;
21539;SDS011;10931;52.164;5.518;2022-12-18T11:52:41;4.18;;;2.17;;
21539;SDS011;10931;52.164;5.518;2022-12-18T11:55:35;2.72;;;1.60;;
21539;SDS011;10931;52.164;5.518;2022-12-18T12:43:10;3.20;;;1.77;;
21539;SDS011;10931;52.164;5.518;2022-12-18T12:46:22;3.95;;;1.85;;
21539;SDS011;10931;52.164;5.518;2022-12-18T12:49:15;3.38;;;1.48;;
21539;SDS011;10931;52.164;5.518;2022-12-18T13:01:53;2.88;;;1.65;;
21539;SDS011;10931;52.164;5.518;2022-12-18T13:58:12;3.45;;;1.70;;
21539;SDS011;10931;52.164;5.518;2022-12-18T14:01:35;4.18;;;1.95;;
21539;SDS011;10931;52.164;5.518;2022-12-18T14:04:44;4.03;;;1.95;;
21539;SDS011;10931;52.164;5.518;2022-12-18T14:07:50;2.95;;;1.75;;
21539;SDS011;10931;52.164;5.518;2022-12-18T14:21:44;3.65;;;1.67;;
21539;SDS011;10931;52.164;5.518;2022-12-18T14:37:29;2.80;;;1.50;;
21539;SDS011;10931;52.164;5.518;2022-12-18T14:40:24;2.75;;;1.58;;
21539;SDS011;10931;52.164;5.518;2022-12-18T14:46:27;4.28;;;1.98;;
21539;SDS011;10931;52.164;5.518;2022-12-18T14:52:45;3.67;;;1.80;;
21539;SDS011;10931;52.164;5.518;2022-12-18T14:58:53;3.08;;;1.85;;
21539;SDS011;10931;52.164;5.518;2022-12-18T15:02:20;3.85;;;1.80;;
21539;SDS011;10931;52.164;5.518;2022-12-18T15:08:00;4.13;;;1.90;;
21539;SDS011;10931;52.164;5.518;2022-12-18T15:10:31;4.25;;;1.77;;
21539;SDS011;10931;52.164;5.518;2022-12-18T15:13:24;3.28;;;2.05;;
21539;SDS011;10931;52.164;5.518;2022-12-18T15:15:52;2.67;;;1.58;;
21539;SDS011;10931;52.164;5.518;2022-12-18T15:18:21;4.38;;;2.13;;
21539;SDS011;10931;52.164;5.518;2022-12-18T15:20:55;2.17;;;1.50;;
21539;SDS011;10931;52.164;5.518;2022-12-18T15:23:25;4.47;;;1.75;;
21539;SDS011;10931;52.164;5.518;2022-12-18T15:26:09;3.97;;;1.95;;
21539;SDS011;10931;52.164;5.518;2022-12-18T15:28:38;3.75;;;1.60;;
21539;SDS011;10931;52.164;5.518;2022-12-18T15:31:57;3.15;;;1.73;;
21539;SDS011;10931;52.164;5.518;2022-12-18T15:34:26;3.50;;;1.63;;
21539;SDS011;10931;52.164;5.518;2022-12-18T15:36:54;3.28;;;1.58;;
21539;SDS011;10931;52.164;5.518;2022-12-18T15:39:22;3.63;;;1.70;;
21539;SDS011;10931;52.164;5.518;2022-12-18T15:41:47;3.90;;;1.73;;
21539;SDS011;10931;52.164;5.518;2022-12-18T15:44:35;2.63;;;1.60;;
21539;SDS011;10931;52.164;5.518;2022-12-18T15:47:01;3.05;;;1.83;;
21539;SDS011;10931;52.164;5.518;2022-12-18T15:49:27;3.13;;;1.50;;
21539;SDS011;10931;52.164;5.518;2022-12-18T15:51:59;2.78;;;1.67;;
21539;SDS011;10931;52.164;5.518;2022-12-18T15:54:29;3.60;;;1.65;;
21539;SDS011;10931;52.164;5.518;2022-12-18T15:57:26;3.50;;;1.92;;
21539;SDS011;10931;52.164;5.518;2022-12-18T15:59:55;3.17;;;1.50;;
21539;SDS011;10931;52.164;5.518;2022-12-18T16:02:23;4.32;;;2.00;;
21539;SDS011;10931;52.164;5.518;2022-12-18T16:04:51;3.88;;;1.75;;
21539;SDS011;10931;52.164;5.518;2022-12-18T16:07:18;3.95;;;1.65;;
21539;SDS011;10931;52.164;5.518;2022-12-18T16:09:47;2.97;;;1.73;;
21539;SDS011;10931;52.164;5.518;2022-12-18T16:12:17;3.10;;;1.80;;
21539;SDS011;10931;52.164;5.518;2022-12-18T16:14:49;3.40;;;1.60;;
21539;SDS011;10931;52.164;5.518;2022-12-18T16:17:16;4.28;;;1.95;;
21539;SDS011;10931;52.164;5.518;2022-12-18T16:28:20;2.88;;;1.67;;
21539;SDS011;10931;52.164;5.518;2022-12-18T17:00:24;3.95;;;2.13;;
21539;SDS011;10931;52.164;5.518;2022-12-18T17:03:33;3.03;;;1.83;;
21539;SDS011;10931;52.164;5.518;2022-12-18T17:06:08;3.53;;;1.80;;
21539;SDS011;10931;52.164;5.518;2022-12-18T17:08:42;3.30;;;1.90;;
21539;SDS011;10931;52.164;5.518;2022-12-18T17:11:53;5.75;;;2.53;;
21539;SDS011;10931;52.164;5.518;2022-12-18T17:14:42;4.82;;;2.35;;
21539;SDS011;10931;52.164;5.518;2022-12-18T17:17:21;3.00;;;1.95;;
21539;SDS011;10931;52.164;5.518;2022-12-18T17:19:57;4.10;;;2.28;;
21539;SDS011;10931;52.164;5.518;2022-12-18T17:22:58;4.82;;;2.42;;
21539;SDS011;10931;52.164;5.518;2022-12-18T17:31:49;3.80;;;2.10;;
21539;SDS011;10931;52.164;5.518;2022-12-18T17:34:20;4.60;;;2.55;;
21539;SDS011;10931;52.164;5.518;2022-12-18T17:36:52;4.47;;;1.98;;
21539;SDS011;10931;52.164;5.518;2022-12-18T17:39:19;5.00;;;2.28;;
21539;SDS011;10931;52.164;5.518;2022-12-18T17:41:47;4.72;;;2.50;;
21539;SDS011;10931;52.164;5.518;2022-12-18T17:44:22;3.92;;;2.08;;
21539;SDS011;10931;52.164;5.518;2022-12-18T17:46:49;4.28;;;2.30;;
21539;SDS011;10931;52.164;5.518;2022-12-18T17:49:16;4.85;;;2.50;;
21539;SDS011;10931;52.164;5.518;2022-12-18T17:51:45;5.82;;;2.42;;
21539;SDS011;10931;52.164;5.518;2022-12-18T17:54:21;3.90;;;2.15;;
21539;SDS011;10931;52.164;5.518;2022-12-18T17:56:46;4.07;;;2.00;;
21539;SDS011;10931;52.164;5.518;2022-12-18T17:59:12;5.10;;;2.40;;
21539;SDS011;10931;52.164;5.518;2022-12-18T18:01:40;4.70;;;2.38;;
21539;SDS011;10931;52.164;5.518;2022-12-18T18:04:14;4.65;;;2.58;;
21539;SDS011;10931;52.164;5.518;2022-12-18T18:06:40;5.05;;;2.45;;
21539;SDS011;10931;52.164;5.518;2022-12-18T18:09:08;4.38;;;2.47;;
21539;SDS011;10931;52.164;5.518;2022-12-18T18:11:34;4.75;;;2.08;;
21539;SDS011;10931;52.164;5.518;2022-12-18T18:14:22;5.00;;;2.28;;
21539;SDS011;10931;52.164;5.518;2022-12-18T18:16:48;3.70;;;2.30;;
21539;SDS011;10931;52.164;5.518;2022-12-18T18:19:21;4.95;;;2.60;;
21539;SDS011;10931;52.164;5.518;2022-12-18T18:24:25;4.63;;;2.17;;
21539;SDS011;10931;52.164;5.518;2022-12-18T18:26:53;4.78;;;2.45;;
21539;SDS011;10931;52.164;5.518;2022-12-18T18:29:28;5.53;;;2.75;;
21539;SDS011;10931;52.164;5.518;2022-12-18T18:31:54;5.75;;;2.90;;
21539;SDS011;10931;52.164;5.518;2022-12-18T18:34:23;4.55;;;2.13;;
21539;SDS011;10931;52.164;5.518;2022-12-18T18:36:50;6.05;;;2.60;;
21539;SDS011;10931;52.164;5.518;2022-12-18T18:39:16;4.35;;;2.28;;
21539;SDS011;10931;52.164;5.518;2022-12-18T18:41:45;6.07;;;2.63;;
21539;SDS011;10931;52.164;5.518;2022-12-18T18:44:19;5.90;;;2.78;;
21539;SDS011;10931;52.164;5.518;2022-12-18T18:46:48;5.88;;;2.92;;
21539;SDS011;10931;52.164;5.518;2022-12-18T18:49:18;5.93;;;2.92;;
21539;SDS011;10931;52.164;5.518;2022-12-18T18:51:44;6.20;;;2.88;;
21539;SDS011;10931;52.164;5.518;2022-12-18T18:54:10;5.28;;;2.90;;
21539;SDS011;10931;52.164;5.518;2022-12-18T18:56:39;6.40;;;2.83;;
21539;SDS011;10931;52.164;5.518;2022-12-18T18:59:09;6.13;;;2.55;;
21539;SDS011;10931;52.164;5.518;2022-12-18T19:01:37;5.95;;;2.70;;
21539;SDS011;10931;52.164;5.518;2022-12-18T19:04:15;6.60;;;2.83;;
21539;SDS011;10931;52.164;5.518;2022-12-18T19:06:41;4.93;;;2.88;;
21539;SDS011;10931;52.164;5.518;2022-12-18T19:09:08;6.93;;;3.00;;
21539;SDS011;10931;52.164;5.518;2022-12-18T19:11:42;6.07;;;3.13;;
21539;SDS011;10931;52.164;5.518;2022-12-18T19:14:26;6.13;;;2.80;;
21539;SDS011;10931;52.164;5.518;2022-12-18T19:20:02;8.73;;;3.63;;
21539;SDS011;10931;52.164;5.518;2022-12-18T19:25:47;7.70;;;3.45;;
21539;SDS011;10931;52.164;5.518;2022-12-18T19:28:49;7.47;;;3.13;;
21539;SDS011;10931;52.164;5.518;2022-12-18T19:37:21;5.55;;;2.90;;
21539;SDS011;10931;52.164;5.518;2022-12-18T19:45:44;5.10;;;3.05;;
21539;SDS011;10931;52.164;5.518;2022-12-18T19:52:33;6.95;;;3.58;;
21539;SDS011;10931;52.164;5.518;2022-12-18T19:57:58;8.80;;;3.28;;
21539;SDS011;10931;52.164;5.518;2022-12-18T20:18:43;6.80;;;3.45;;
21539;SDS011;10931;52.164;5.518;2022-12-18T20:24:09;8.63;;;3.60;;
21539;SDS011;10931;52.164;5.518;2022-12-18T20:26:54;6.07;;;3.08;;
21539;SDS011;10931;52.164;5.518;2022-12-18T22:47:58;9.55;;;4.18;;
21539;SDS011;10931;52.164;5.518;2022-12-18T22:50:28;8.55;;;4.20;;
21539;SDS011;10931;52.164;5.518;2022-12-18T22:53:05;7.65;;;3.92;;
21539;SDS011;10931;52.164;5.518;2022-12-18T23:04:00;8.82;;;4.18;;
21539;SDS011;10931;52.164;5.518;2022-12-18T23:06:34;7.25;;;3.95;;
21539;SDS011;10931;52.164;5.518;2022-12-18T23:16:13;8.05;;;4.30;;
21539;SDS011;10931;52.164;5.518;2022-12-18T23:19:33;7.07;;;3.78;;
21539;SDS011;10931;52.164;5.518;2022-12-18T23:36:12;8.32;;;3.97;;
21539;SDS011;10931;52.164;5.518;2022-12-18T23:44:58;6.35;;;3.72;;
21539;SDS011;10931;52.164;5.518;2022-12-18T23:47:51;7.50;;;4.30;;
21539;SDS011;10931;52.164;5.518;2022-12-18T23:56:11;6.80;;;4.00;;
